sensor_id;sensor_type;location;lat;lon;timestamp;pressure;altitude;pressure_sealevel;temperature;humidity
6413;BME280;3239;48.714;9.472;2023-09-07T00:01:56;98165.94;;;14.38;100.00
6413;BME280;3239;48.714;9.472;2023-09-07T00:04:21;98161.16;;;14.31;100.00
6413;BME280;3239;48.714;9.472;2023-09-07T00:06:51;98159.84;;;14.24;100.00
6413;BME280;3239;48.714;9.472;2023-09-07T00:09:17;98166.81;;;14.25;100.00
6413;BME280;3239;48.714;9.472;2023-09-07T00:11:47;98168.28;;;14.26;100.00
6413;BME280;3239;48.714;9.472;2023-09-07T00:14:13;98157.63;;;14.23;100.00
6413;BME280;3239;48.714;9.472;2023-09-07T00:16:39;98151.19;;;14.20;100.00
6413;BME280;3239;48.714;9.472;2023-09-07T00:19:05;98152.66;;;14.21;100.00
6413;BME280;3239;48.714;9.472;2023-09-07T00:21:31;98148.03;;;14.16;100.00
6413;BME280;3239;48.714;9.472;2023-09-07T00:23:57;98146.19;;;14.11;100.00
6413;BME280;3239;48.714;9.472;2023-09-07T00:26:22;98146.38;;;14.06;100.00
6413;BME280;3239;48.714;9.472;2023-09-07T00:28:48;98151.34;;;14.07;100.00
6413;BME280;3239;48.714;9.472;2023-09-07T00:31:14;98146.38;;;14.06;100.00
6413;BME280;3239;48.714;9.472;2023-09-07T00:33:40;98148.94;;;14.04;100.00
6413;BME280;3239;48.714;9.472;2023-09-07T00:36:05;98150.78;;;14.01;100.00
6413;BME280;3239;48.714;9.472;2023-09-07T00:38:31;98150.00;;;13.93;100.00
6413;BME280;3239;48.714;9.472;2023-09-07T00:40:57;98144.31;;;13.91;100.00
6413;BME280;3239;48.714;9.472;2023-09-07T00:43:23;98149.25;;;13.85;100.00
6413;BME280;3239;48.714;9.472;2023-09-07T00:45:49;98151.09;;;13.83;100.00
6413;BME280;3239;48.714;9.472;2023-09-07T00:48:16;98151.66;;;13.89;100.00
6413;BME280;3239;48.714;9.472;2023-09-07T00:50:42;98153.28;;;13.84;100.00
6413;BME280;3239;48.714;9.472;2023-09-07T00:53:10;98150.72;;;13.79;100.00
6413;BME280;3239;48.714;9.472;2023-09-07T00:55:36;98144.81;;;13.75;100.00
6413;BME280;3239;48.714;9.472;2023-09-07T00:58:04;98147.72;;;13.69;100.00
6413;BME280;3239;48.714;9.472;2023-09-07T01:00:30;98149.91;;;13.63;100.00
6413;BME280;3239;48.714;9.472;2023-09-07T01:02:57;98145.28;;;13.58;100.00
6413;BME280;3239;48.714;9.472;2023-09-07T01:08:36;98140.69;;;13.53;100.00
6413;BME280;3239;48.714;9.472;2023-09-07T01:11:18;98145.28;;;13.58;100.00
6413;BME280;3239;48.714;9.472;2023-09-07T01:13:49;98134.09;;;13.56;100.00
6413;BME280;3239;48.714;9.472;2023-09-07T01:16:15;98139.56;;;13.49;100.00
6413;BME280;3239;48.714;9.472;2023-09-07T01:18:42;98138.09;;;13.48;100.00
6413;BME280;3239;48.714;9.472;2023-09-07T01:21:09;98136.81;;;13.49;100.00
6413;BME280;3239;48.714;9.472;2023-09-07T01:23:39;98133.50;;;13.43;100.00
6413;BME280;3239;48.714;9.472;2023-09-07T01:26:08;98135.31;;;13.40;100.00
6413;BME280;3239;48.714;9.472;2023-09-07T01:28:34;98134.38;;;13.38;100.00
6413;BME280;3239;48.714;9.472;2023-09-07T01:31:00;98136.22;;;13.35;100.00
6413;BME280;3239;48.714;9.472;2023-09-07T01:33:27;98144.06;;;13.31;100.00
6413;BME280;3239;48.714;9.472;2023-09-07T01:35:53;98118.75;;;13.25;100.00
6413;BME280;3239;48.714;9.472;2023-09-07T01:38:18;98128.47;;;13.26;100.00
6413;BME280;3239;48.714;9.472;2023-09-07T01:40:45;98121.47;;;13.25;100.00
6413;BME280;3239;48.714;9.472;2023-09-07T01:43:10;98122.94;;;13.26;100.00
6413;BME280;3239;48.714;9.472;2023-09-07T01:45:36;98121.31;;;13.23;100.00
6413;BME280;3239;48.714;9.472;2023-09-07T01:48:02;98115.41;;;13.19;100.00
6413;BME280;3239;48.714;9.472;2023-09-07T01:50:28;98113.41;;;13.20;100.00
6413;BME280;3239;48.714;9.472;2023-09-07T01:52:54;98105.34;;;13.22;100.00
6413;BME280;3239;48.714;9.472;2023-09-07T01:55:20;98114.28;;;13.15;100.00
6413;BME280;3239;48.714;9.472;2023-09-07T01:57:46;98105.47;;;13.16;100.00
6413;BME280;3239;48.714;9.472;2023-09-07T02:00:12;98100.38;;;13.20;100.00
6413;BME280;3239;48.714;9.472;2023-09-07T02:02:38;98102.16;;;13.10;100.00
6413;BME280;3239;48.714;9.472;2023-09-07T02:05:04;98107.50;;;13.16;100.00
6413;BME280;3239;48.714;9.472;2023-09-07T02:07:30;98109.69;;;13.10;100.00
6413;BME280;3239;48.714;9.472;2023-09-07T02:09:56;98103.63;;;13.11;100.00
6413;BME280;3239;48.714;9.472;2023-09-07T02:12:21;98107.28;;;13.06;100.00
6413;BME280;3239;48.714;9.472;2023-09-07T02:14:47;98101.03;;;13.06;100.00
6413;BME280;3239;48.714;9.472;2023-09-07T02:17:13;98106.88;;;13.02;100.00
6413;BME280;3239;48.714;9.472;2023-09-07T02:19:44;98102.81;;;12.96;100.00
6413;BME280;3239;48.714;9.472;2023-09-07T02:22:10;98097.78;;;12.87;100.00
6413;BME280;3239;48.714;9.472;2023-09-07T02:24:36;98097.53;;;12.77;100.00
6413;BME280;3239;48.714;9.472;2023-09-07T02:27:01;98098.41;;;12.72;100.00
6413;BME280;3239;48.714;9.472;2023-09-07T02:29:27;98099.75;;;12.79;100.00
6413;BME280;3239;48.714;9.472;2023-09-07T02:31:53;98095.72;;;12.80;100.00
6413;BME280;3239;48.714;9.472;2023-09-07T02:34:18;98092.84;;;12.85;100.00
6413;BME280;3239;48.714;9.472;2023-09-07T02:36:44;98091.75;;;12.88;100.00
6413;BME280;3239;48.714;9.472;2023-09-07T02:39:10;98085.50;;;12.88;100.00
6413;BME280;3239;48.714;9.472;2023-09-07T02:41:37;98088.25;;;12.88;100.00
6413;BME280;3239;48.714;9.472;2023-09-07T02:44:04;98080.56;;;12.86;100.00
6413;BME280;3239;48.714;9.472;2023-09-07T02:46:30;98081.44;;;12.81;100.00
6413;BME280;3239;48.714;9.472;2023-09-07T02:48:59;98086.41;;;12.83;100.00
6413;BME280;3239;48.714;9.472;2023-09-07T02:51:25;98080.28;;;12.77;100.00
6413;BME280;3239;48.714;9.472;2023-09-07T02:53:51;98079.94;;;12.73;100.00
6413;BME280;3239;48.714;9.472;2023-09-07T02:56:17;98072.22;;;12.71;100.00
6413;BME280;3239;48.714;9.472;2023-09-07T02:58:43;98076.03;;;12.68;100.00
6413;BME280;3239;48.714;9.472;2023-09-07T03:01:08;98078.25;;;12.70;100.00
6413;BME280;3239;48.714;9.472;2023-09-07T03:03:34;98070.53;;;12.68;100.00
6413;BME280;3239;48.714;9.472;2023-09-07T03:06:11;98070.69;;;12.63;100.00
6413;BME280;3239;48.714;9.472;2023-09-07T03:08:37;98064.97;;;12.61;100.00
6413;BME280;3239;48.714;9.472;2023-09-07T03:11:06;98069.16;;;12.54;100.00
6413;BME280;3239;48.714;9.472;2023-09-07T03:13:33;98068.25;;;12.52;100.00
6413;BME280;3239;48.714;9.472;2023-09-07T03:15:59;98065.63;;;12.46;100.00
6413;BME280;3239;48.714;9.472;2023-09-07T03:18:25;98063.41;;;12.45;100.00
6413;BME280;3239;48.714;9.472;2023-09-07T03:20:54;98064.91;;;12.46;100.00
6413;BME280;3239;48.714;9.472;2023-09-07T03:23:20;98055.50;;;12.41;100.00
6413;BME280;3239;48.714;9.472;2023-09-07T03:25:46;98059.88;;;12.37;100.00
6413;BME280;3239;48.714;9.472;2023-09-07T03:28:12;98056.78;;;12.40;100.00
6413;BME280;3239;48.714;9.472;2023-09-07T03:30:38;98056.78;;;12.40;100.00
6413;BME280;3239;48.714;9.472;2023-09-07T03:33:04;98061.41;;;12.45;100.00
6413;BME280;3239;48.714;9.472;2023-09-07T03:35:30;98054.63;;;12.46;100.00
6413;BME280;3239;48.714;9.472;2023-09-07T03:37:55;98056.66;;;12.46;100.00
6413;BME280;3239;48.714;9.472;2023-09-07T03:40:21;98054.78;;;12.41;100.00
6413;BME280;3239;48.714;9.472;2023-09-07T03:42:46;98056.38;;;12.36;100.00
6413;BME280;3239;48.714;9.472;2023-09-07T03:45:12;98062.97;;;12.33;100.00
6413;BME280;3239;48.714;9.472;2023-09-07T03:47:38;98051.44;;;12.35;100.00
6413;BME280;3239;48.714;9.472;2023-09-07T03:50:04;98059.66;;;12.35;100.00
6413;BME280;3239;48.714;9.472;2023-09-07T03:52:30;98042.47;;;12.34;100.00
6413;BME280;3239;48.714;9.472;2023-09-07T03:54:57;98053.25;;;12.32;100.00
6413;BME280;3239;48.714;9.472;2023-09-07T03:57:26;98047.56;;;12.30;100.00
6413;BME280;3239;48.714;9.472;2023-09-07T03:59:52;98046.44;;;12.26;100.00
6413;BME280;3239;48.714;9.472;2023-09-07T04:02:18;98051.53;;;12.22;100.00
6413;BME280;3239;48.714;9.472;2023-09-07T04:04:47;98046.38;;;12.18;100.00
6413;BME280;3239;48.714;9.472;2023-09-07T04:07:13;98045.63;;;12.18;100.00
6413;BME280;3239;48.714;9.472;2023-09-07T04:09:39;98041.00;;;12.13;100.00
6413;BME280;3239;48.714;9.472;2023-09-07T04:12:05;98036.97;;;12.14;100.00
6413;BME280;3239;48.714;9.472;2023-09-07T04:14:31;98041.94;;;12.15;100.00
6413;BME280;3239;48.714;9.472;2023-09-07T04:16:57;98038.47;;;12.15;100.00
6413;BME280;3239;48.714;9.472;2023-09-07T04:19:23;98042.16;;;12.17;100.00
6413;BME280;3239;48.714;9.472;2023-09-07T04:21:49;98037.88;;;12.09;100.00
6413;BME280;3239;48.714;9.472;2023-09-07T04:24:15;98042.63;;;12.08;100.00
6413;BME280;3239;48.714;9.472;2023-09-07T04:26:40;98047.00;;;12.04;100.00
6413;BME280;3239;48.714;9.472;2023-09-07T04:29:07;98041.28;;;12.02;100.00
6413;BME280;3239;48.714;9.472;2023-09-07T04:31:32;98031.56;;;12.01;100.00
6413;BME280;3239;48.714;9.472;2023-09-07T04:33:58;98036.13;;;11.98;100.00
6413;BME280;3239;48.714;9.472;2023-09-07T04:36:24;98033.72;;;11.95;100.00
6413;BME280;3239;48.714;9.472;2023-09-07T04:38:49;98041.03;;;11.92;100.00
6413;BME280;3239;48.714;9.472;2023-09-07T04:41:15;98038.28;;;11.92;100.00
6413;BME280;3239;48.714;9.472;2023-09-07T04:43:41;98039.75;;;11.93;100.00
6413;BME280;3239;48.714;9.472;2023-09-07T04:46:13;98035.72;;;11.94;100.00
6413;BME280;3239;48.714;9.472;2023-09-07T04:48:40;98030.63;;;11.98;100.00
6413;BME280;3239;48.714;9.472;2023-09-07T04:51:10;98039.81;;;12.01;100.00
6413;BME280;3239;48.714;9.472;2023-09-07T04:53:38;98028.44;;;11.97;100.00
6413;BME280;3239;48.714;9.472;2023-09-07T04:56:05;98030.97;;;11.95;100.00
6413;BME280;3239;48.714;9.472;2023-09-07T04:58:30;98030.78;;;11.93;100.00
6413;BME280;3239;48.714;9.472;2023-09-07T05:01:08;98039.22;;;11.95;100.00
6413;BME280;3239;48.714;9.472;2023-09-07T05:03:35;98031.69;;;11.95;100.00
6413;BME280;3239;48.714;9.472;2023-09-07T05:06:00;98037.94;;;11.96;100.00
6413;BME280;3239;48.714;9.472;2023-09-07T05:08:26;98025.69;;;11.97;100.00
6413;BME280;3239;48.714;9.472;2023-09-07T05:10:56;98033.38;;;11.98;100.00
6413;BME280;3239;48.714;9.472;2023-09-07T05:13:25;98034.50;;;12.03;100.00
6413;BME280;3239;48.714;9.472;2023-09-07T05:15:52;98036.72;;;12.04;100.00
6413;BME280;3239;48.714;9.472;2023-09-07T05:18:18;98045.50;;;12.03;100.00
6413;BME280;3239;48.714;9.472;2023-09-07T05:20:44;98039.69;;;12.06;100.00
6413;BME280;3239;48.714;9.472;2023-09-07T05:23:14;98046.13;;;12.09;100.00
6413;BME280;3239;48.714;9.472;2023-09-07T05:25:45;98054.53;;;12.11;100.00
6413;BME280;3239;48.714;9.472;2023-09-07T05:28:12;98047.31;;;12.21;100.00
6413;BME280;3239;48.714;9.472;2023-09-07T05:30:39;98055.25;;;12.32;100.00
6413;BME280;3239;48.714;9.472;2023-09-07T05:33:04;98055.31;;;12.39;100.00
6413;BME280;3239;48.714;9.472;2023-09-07T05:35:30;98054.63;;;12.46;100.00
6413;BME280;3239;48.714;9.472;2023-09-07T05:37:58;98059.25;;;12.51;100.00
6413;BME280;3239;48.714;9.472;2023-09-07T05:40:24;98071.56;;;12.58;100.00
6413;BME280;3239;48.714;9.472;2023-09-07T05:42:49;98076.38;;;12.65;100.00
6413;BME280;3239;48.714;9.472;2023-09-07T05:45:15;98075.69;;;12.72;100.00
6413;BME280;3239;48.714;9.472;2023-09-07T05:47:41;98073.53;;;12.78;100.00
6413;BME280;3239;48.714;9.472;2023-09-07T05:50:06;98085.31;;;12.86;100.00
6413;BME280;3239;48.714;9.472;2023-09-07T05:52:32;98087.56;;;12.95;100.00
6413;BME280;3239;48.714;9.472;2023-09-07T05:54:58;98081.38;;;13.02;100.00
6413;BME280;3239;48.714;9.472;2023-09-07T05:57:23;98083.69;;;13.18;100.00
6413;BME280;3239;48.714;9.472;2023-09-07T05:59:49;98085.00;;;13.32;100.00
6413;BME280;3239;48.714;9.472;2023-09-07T06:02:15;98096.47;;;13.51;100.00
6413;BME280;3239;48.714;9.472;2023-09-07T06:04:40;98107.38;;;13.79;100.00
6413;BME280;3239;48.714;9.472;2023-09-07T06:07:06;98115.19;;;14.18;100.00
6413;BME280;3239;48.714;9.472;2023-09-07T06:09:32;98120.53;;;14.54;100.00
6413;BME280;3239;48.714;9.472;2023-09-07T06:11:57;98117.94;;;14.71;100.00
6413;BME280;3239;48.714;9.472;2023-09-07T06:14:23;98134.75;;;15.42;100.00
6413;BME280;3239;48.714;9.472;2023-09-07T06:16:48;98137.09;;;16.25;100.00
6413;BME280;3239;48.714;9.472;2023-09-07T06:19:14;98151.63;;;16.99;100.00
6413;BME280;3239;48.714;9.472;2023-09-07T06:21:40;98166.53;;;17.45;100.00
6413;BME280;3239;48.714;9.472;2023-09-07T06:24:06;98170.22;;;18.17;100.00
6413;BME280;3239;48.714;9.472;2023-09-07T06:26:32;98180.16;;;18.73;100.00
6413;BME280;3239;48.714;9.472;2023-09-07T06:28:57;98223.59;;;19.33;100.00
6413;BME280;3239;48.714;9.472;2023-09-07T06:31:23;98259.31;;;19.65;100.00
6413;BME280;3239;48.714;9.472;2023-09-07T06:33:49;98286.75;;;18.87;100.00
6413;BME280;3239;48.714;9.472;2023-09-07T06:36:14;98294.38;;;19.42;100.00
6413;BME280;3239;48.714;9.472;2023-09-07T06:38:40;98322.72;;;20.05;100.00
6413;BME280;3239;48.714;9.472;2023-09-07T06:41:06;98350.44;;;20.12;100.00
6413;BME280;3239;48.714;9.472;2023-09-07T06:43:33;98380.63;;;20.35;100.00
6413;BME280;3239;48.714;9.472;2023-09-07T06:46:05;98372.88;;;19.06;100.00
6413;BME280;3239;48.714;9.472;2023-09-07T06:48:32;98381.97;;;18.63;100.00
6413;BME280;3239;48.714;9.472;2023-09-07T06:51:04;98379.06;;;19.41;100.00
6413;BME280;3239;48.714;9.472;2023-09-07T06:53:30;98383.13;;;19.66;100.00
6413;BME280;3239;48.714;9.472;2023-09-07T06:56:00;98409.59;;;21.08;100.00
6413;BME280;3239;48.714;9.472;2023-09-07T06:58:26;98420.47;;;20.28;100.00
6413;BME280;3239;48.714;9.472;2023-09-07T07:00:52;98425.44;;;20.58;100.00
6413;BME280;3239;48.714;9.472;2023-09-07T07:03:18;98442.88;;;20.96;100.00
6413;BME280;3239;48.714;9.472;2023-09-07T07:05:44;98453.75;;;20.64;100.00
6413;BME280;3239;48.714;9.472;2023-09-07T07:08:09;98433.19;;;20.31;100.00
6413;BME280;3239;48.714;9.472;2023-09-07T07:10:35;98449.94;;;21.56;100.00
6413;BME280;3239;48.714;9.472;2023-09-07T07:13:00;98466.34;;;22.53;100.00
6413;BME280;3239;48.714;9.472;2023-09-07T07:15:26;98486.69;;;23.74;100.00
6413;BME280;3239;48.714;9.472;2023-09-07T07:17:52;98507.00;;;22.98;100.00
6413;BME280;3239;48.714;9.472;2023-09-07T07:20:17;98498.19;;;23.13;100.00
6413;BME280;3239;48.714;9.472;2023-09-07T07:22:43;98499.47;;;22.68;100.00
6413;BME280;3239;48.714;9.472;2023-09-07T07:25:10;98501.56;;;23.00;100.00
6413;BME280;3239;48.714;9.472;2023-09-07T07:27:36;98496.69;;;23.01;100.00
6413;BME280;3239;48.714;9.472;2023-09-07T07:30:02;98492.66;;;23.80;100.00
6413;BME280;3239;48.714;9.472;2023-09-07T07:32:28;98502.94;;;24.10;100.00
6413;BME280;3239;48.714;9.472;2023-09-07T07:34:53;98502.88;;;24.68;100.00
6413;BME280;3239;48.714;9.472;2023-09-07T07:37:19;98512.59;;;25.40;100.00
6413;BME280;3239;48.714;9.472;2023-09-07T07:39:45;98510.22;;;24.98;100.00
6413;BME280;3239;48.714;9.472;2023-09-07T07:42:10;98517.66;;;25.93;100.00
6413;BME280;3239;48.714;9.472;2023-09-07T07:44:36;98518.34;;;25.80;100.00
6413;BME280;3239;48.714;9.472;2023-09-07T07:47:02;98518.00;;;26.67;100.00
6413;BME280;3239;48.714;9.472;2023-09-07T07:49:27;98504.88;;;26.71;100.00
6413;BME280;3239;48.714;9.472;2023-09-07T07:51:53;98511.31;;;26.06;100.00
6413;BME280;3239;48.714;9.472;2023-09-07T07:54:20;98507.50;;;25.00;100.00
6413;BME280;3239;48.714;9.472;2023-09-07T07:56:48;98509.03;;;25.14;100.00
6413;BME280;3239;48.714;9.472;2023-09-07T07:59:14;98502.88;;;25.29;100.00
6413;BME280;3239;48.714;9.472;2023-09-07T08:01:39;98518.69;;;25.61;100.00
6413;BME280;3239;48.714;9.472;2023-09-07T08:04:05;98513.72;;;25.35;100.00
6413;BME280;3239;48.714;9.472;2023-09-07T08:06:32;98513.41;;;26.33;100.00
6413;BME280;3239;48.714;9.472;2023-09-07T08:08:58;98515.41;;;25.40;100.00
6413;BME280;3239;48.714;9.472;2023-09-07T08:11:23;98509.03;;;25.64;100.00
6413;BME280;3239;48.714;9.472;2023-09-07T08:13:49;98513.22;;;26.29;100.00
6413;BME280;3239;48.714;9.472;2023-09-07T08:16:15;98506.56;;;26.63;100.00
6413;BME280;3239;48.714;9.472;2023-09-07T08:18:41;98501.41;;;27.29;100.00
6413;BME280;3239;48.714;9.472;2023-09-07T08:21:07;98496.91;;;26.95;100.00
6413;BME280;3239;48.714;9.472;2023-09-07T08:23:32;98494.25;;;27.12;100.00
6413;BME280;3239;48.714;9.472;2023-09-07T08:25:58;98500.91;;;26.76;100.00
6413;BME280;3239;48.714;9.472;2023-09-07T08:28:24;98487.00;;;27.67;100.00
6413;BME280;3239;48.714;9.472;2023-09-07T08:30:51;98479.03;;;28.08;100.00
6413;BME280;3239;48.714;9.472;2023-09-07T08:33:23;98480.19;;;28.34;100.00
6413;BME280;3239;48.714;9.472;2023-09-07T08:35:52;98483.63;;;27.40;100.00
6413;BME280;3239;48.714;9.472;2023-09-07T08:38:19;98482.69;;;27.80;100.00
6413;BME280;3239;48.714;9.472;2023-09-07T08:40:50;98485.22;;;27.29;100.00
6413;BME280;3239;48.714;9.472;2023-09-07T08:43:16;98481.63;;;27.13;100.00
6413;BME280;3239;48.714;9.472;2023-09-07T08:48:32;98477.81;;;28.44;100.00
6413;BME280;3239;48.714;9.472;2023-09-07T08:50:59;98480.44;;;28.73;99.38
6413;BME280;3239;48.714;9.472;2023-09-07T08:53:24;98483.44;;;28.29;100.00
6413;BME280;3239;48.714;9.472;2023-09-07T08:55:51;98484.13;;;27.65;100.00
6413;BME280;3239;48.714;9.472;2023-09-07T08:58:16;98483.84;;;27.59;100.00
6413;BME280;3239;48.714;9.472;2023-09-07T09:00:42;98478.75;;;28.66;100.00
6413;BME280;3239;48.714;9.472;2023-09-07T09:03:09;98486.78;;;28.56;100.00
6413;BME280;3239;48.714;9.472;2023-09-07T09:05:37;98485.16;;;28.03;100.00
6413;BME280;3239;48.714;9.472;2023-09-07T09:08:04;98485.69;;;27.84;100.00
6413;BME280;3239;48.714;9.472;2023-09-07T09:10:30;98478.09;;;29.18;100.00
6413;BME280;3239;48.714;9.472;2023-09-07T09:12:56;98485.00;;;27.70;100.00
6413;BME280;3239;48.714;9.472;2023-09-07T09:15:27;98474.44;;;28.48;100.00
6413;BME280;3239;48.714;9.472;2023-09-07T09:17:53;98477.09;;;28.94;99.34
6413;BME280;3239;48.714;9.472;2023-09-07T09:20:23;98476.19;;;28.90;100.00
6413;BME280;3239;48.714;9.472;2023-09-07T09:22:53;98476.63;;;29.00;97.92
6413;BME280;3239;48.714;9.472;2023-09-07T09:25:20;98474.53;;;29.18;99.90
6413;BME280;3239;48.714;9.472;2023-09-07T09:27:46;98470.59;;;29.07;98.79
6413;BME280;3239;48.714;9.472;2023-09-07T09:30:12;98466.00;;;29.33;94.40
6413;BME280;3239;48.714;9.472;2023-09-07T09:32:40;98467.28;;;28.95;100.00
6413;BME280;3239;48.714;9.472;2023-09-07T09:35:07;98461.78;;;29.89;95.15
6413;BME280;3239;48.714;9.472;2023-09-07T09:37:33;98467.66;;;29.58;95.30
6413;BME280;3239;48.714;9.472;2023-09-07T09:40:00;98460.00;;;29.80;93.08
6413;BME280;3239;48.714;9.472;2023-09-07T09:42:27;98454.16;;;29.74;94.59
6413;BME280;3239;48.714;9.472;2023-09-07T09:44:53;98458.16;;;29.32;98.25
6413;BME280;3239;48.714;9.472;2023-09-07T09:47:20;98458.63;;;29.44;98.98
6413;BME280;3239;48.714;9.472;2023-09-07T09:49:46;98455.16;;;29.82;95.03
6413;BME280;3239;48.714;9.472;2023-09-07T09:52:12;98452.97;;;29.61;93.70
6413;BME280;3239;48.714;9.472;2023-09-07T09:54:39;98457.31;;;30.62;91.15
6413;BME280;3239;48.714;9.472;2023-09-07T09:57:05;98450.31;;;29.85;93.57
6413;BME280;3239;48.714;9.472;2023-09-07T09:59:31;98452.09;;;29.57;93.27
6413;BME280;3239;48.714;9.472;2023-09-07T10:01:56;98448.41;;;30.69;88.28
6413;BME280;3239;48.714;9.472;2023-09-07T10:04:22;98446.22;;;30.68;85.70
6413;BME280;3239;48.714;9.472;2023-09-07T10:06:57;98449.50;;;31.25;79.22
6413;BME280;3239;48.714;9.472;2023-09-07T10:09:23;98446.41;;;30.95;81.30
6413;BME280;3239;48.714;9.472;2023-09-07T10:11:53;98443.50;;;30.93;82.60
6413;BME280;3239;48.714;9.472;2023-09-07T10:14:19;98443.50;;;30.93;81.74
6413;BME280;3239;48.714;9.472;2023-09-07T10:16:50;98439.03;;;31.76;82.85
6413;BME280;3239;48.714;9.472;2023-09-07T10:19:20;98444.06;;;31.11;79.75
6413;BME280;3239;48.714;9.472;2023-09-07T10:21:46;98432.84;;;30.92;82.53
6413;BME280;3239;48.714;9.472;2023-09-07T10:24:12;98431.31;;;31.79;79.00
6413;BME280;3239;48.714;9.472;2023-09-07T10:26:59;98429.88;;;31.09;77.69
6413;BME280;3239;48.714;9.472;2023-09-07T10:29:25;98435.34;;;31.25;79.95
6413;BME280;3239;48.714;9.472;2023-09-07T10:31:51;98433.88;;;31.24;76.62
6413;BME280;3239;48.714;9.472;2023-09-07T10:34:17;98431.63;;;30.75;84.09
6413;BME280;3239;48.714;9.472;2023-09-07T10:36:43;98427.94;;;29.91;87.96
6413;BME280;3239;48.714;9.472;2023-09-07T10:39:09;98425.47;;;29.62;92.16
6413;BME280;3239;48.714;9.472;2023-09-07T10:41:44;98418.53;;;31.09;81.02
6413;BME280;3239;48.714;9.472;2023-09-07T10:44:11;98414.97;;;31.77;80.08
6413;BME280;3239;48.714;9.472;2023-09-07T10:46:38;98403.81;;;31.36;79.37
6413;BME280;3239;48.714;9.472;2023-09-07T10:49:08;98402.13;;;31.51;75.54
6413;BME280;3239;48.714;9.472;2023-09-07T10:51:44;98404.06;;;31.21;80.37
6413;BME280;3239;48.714;9.472;2023-09-07T10:54:17;98415.47;;;31.01;80.16
6413;BME280;3239;48.714;9.472;2023-09-07T10:56:45;98408.47;;;31.73;73.53
6413;BME280;3239;48.714;9.472;2023-09-07T10:59:14;98406.66;;;31.36;73.37
6413;BME280;3239;48.714;9.472;2023-09-07T11:01:41;98401.84;;;30.96;77.36
6413;BME280;3239;48.714;9.472;2023-09-07T11:04:06;98401.31;;;31.01;82.06
6413;BME280;3239;48.714;9.472;2023-09-07T11:06:34;98398.59;;;31.74;74.97
6413;BME280;3239;48.714;9.472;2023-09-07T11:09:00;98407.41;;;31.37;75.74
6413;BME280;3239;48.714;9.472;2023-09-07T11:11:26;98401.69;;;31.84;74.76
6413;BME280;3239;48.714;9.472;2023-09-07T11:13:52;98396.03;;;31.13;76.92
6413;BME280;3239;48.714;9.472;2023-09-07T11:16:18;98400.19;;;31.57;77.07
6413;BME280;3239;48.714;9.472;2023-09-07T11:18:45;98393.34;;;32.41;72.09
6413;BME280;3239;48.714;9.472;2023-09-07T11:21:11;98392.47;;;31.13;74.57
6413;BME280;3239;48.714;9.472;2023-09-07T11:23:37;98392.03;;;31.69;73.21
6413;BME280;3239;48.714;9.472;2023-09-07T11:26:07;98382.78;;;32.18;75.33
6413;BME280;3239;48.714;9.472;2023-09-07T11:28:33;98383.75;;;32.01;72.26
6413;BME280;3239;48.714;9.472;2023-09-07T11:30:59;98370.81;;;32.21;72.75
6413;BME280;3239;48.714;9.472;2023-09-07T11:33:25;98378.94;;;32.33;74.89
6413;BME280;3239;48.714;9.472;2023-09-07T11:35:52;98369.63;;;31.28;76.69
6413;BME280;3239;48.714;9.472;2023-09-07T11:38:19;98371.88;;;30.65;80.91
6413;BME280;3239;48.714;9.472;2023-09-07T11:40:45;98376.25;;;30.27;87.38
6413;BME280;3239;48.714;9.472;2023-09-07T11:43:15;98379.34;;;30.35;90.99
6413;BME280;3239;48.714;9.472;2023-09-07T11:45:43;98365.28;;;29.40;94.08
6413;BME280;3239;48.714;9.472;2023-09-07T11:48:10;98370.59;;;29.49;95.75
6413;BME280;3239;48.714;9.472;2023-09-07T11:50:36;98348.09;;;29.51;94.57
6413;BME280;3239;48.714;9.472;2023-09-07T11:53:03;98358.66;;;29.51;96.41
6413;BME280;3239;48.714;9.472;2023-09-07T11:55:29;98356.13;;;29.78;91.13
6413;BME280;3239;48.714;9.472;2023-09-07T11:57:54;98366.66;;;29.56;90.08
6413;BME280;3239;48.714;9.472;2023-09-07T12:00:20;98359.47;;;29.92;90.67
6413;BME280;3239;48.714;9.472;2023-09-07T12:02:48;98349.91;;;29.82;93.61
6413;BME280;3239;48.714;9.472;2023-09-07T12:05:13;98351.00;;;29.92;90.03
6413;BME280;3239;48.714;9.472;2023-09-07T12:07:44;98343.03;;;29.48;89.42
6413;BME280;3239;48.714;9.472;2023-09-07T12:10:09;98348.41;;;29.59;90.54
6413;BME280;3239;48.714;9.472;2023-09-07T12:12:39;98348.03;;;29.88;87.03
6413;BME280;3239;48.714;9.472;2023-09-07T12:15:06;98345.66;;;29.05;89.01
6413;BME280;3239;48.714;9.472;2023-09-07T12:17:32;98349.53;;;29.52;91.11
6413;BME280;3239;48.714;9.472;2023-09-07T12:19:58;98347.31;;;29.68;86.60
6413;BME280;3239;48.714;9.472;2023-09-07T12:22:24;98347.97;;;29.86;84.74
6413;BME280;3239;48.714;9.472;2023-09-07T12:24:50;98340.94;;;29.48;86.06
6413;BME280;3239;48.714;9.472;2023-09-07T12:27:15;98344.63;;;30.11;90.74
6413;BME280;3239;48.714;9.472;2023-09-07T12:29:41;98335.88;;;29.84;87.70
6413;BME280;3239;48.714;9.472;2023-09-07T12:32:07;98340.34;;;30.32;85.80
6413;BME280;3239;48.714;9.472;2023-09-07T12:34:33;98337.19;;;30.22;79.97
6413;BME280;3239;48.714;9.472;2023-09-07T12:36:58;98329.56;;;30.26;81.40
6413;BME280;3239;48.714;9.472;2023-09-07T12:39:24;98335.13;;;30.65;80.89
6413;BME280;3239;48.714;9.472;2023-09-07T12:41:50;98325.22;;;30.45;79.92
6413;BME280;3239;48.714;9.472;2023-09-07T12:44:15;98326.53;;;30.20;85.92
6413;BME280;3239;48.714;9.472;2023-09-07T12:46:43;98322.00;;;29.92;87.04
6413;BME280;3239;48.714;9.472;2023-09-07T12:49:09;98323.22;;;30.06;83.35
6413;BME280;3239;48.714;9.472;2023-09-07T12:51:35;98321.19;;;30.09;85.72
6413;BME280;3239;48.714;9.472;2023-09-07T12:54:01;98320.28;;;30.24;83.83
6413;BME280;3239;48.714;9.472;2023-09-07T12:56:28;98321.34;;;30.34;80.00
6413;BME280;3239;48.714;9.472;2023-09-07T12:58:54;98325.06;;;30.62;81.66
6413;BME280;3239;48.714;9.472;2023-09-07T13:01:19;98321.47;;;30.60;82.63
6413;BME280;3239;48.714;9.472;2023-09-07T13:03:45;98323.06;;;30.43;86.15
6413;BME280;3239;48.714;9.472;2023-09-07T13:06:11;98322.97;;;30.63;87.77
6413;BME280;3239;48.714;9.472;2023-09-07T13:08:36;98314.13;;;30.96;87.60
6413;BME280;3239;48.714;9.472;2023-09-07T13:11:02;98314.41;;;31.06;82.42
6413;BME280;3239;48.714;9.472;2023-09-07T13:13:28;98309.53;;;30.85;84.16
6413;BME280;3239;48.714;9.472;2023-09-07T13:15:55;98316.16;;;31.17;76.39
6413;BME280;3239;48.714;9.472;2023-09-07T13:18:21;98309.06;;;31.16;72.67